createdAt,value
2022-08-23T00:00:52.490Z,53.03
2022-08-23T00:01:58.013Z,52.71
2022-08-23T00:03:04.580Z,52.60
2022-08-23T00:04:13.550Z,52.86
2022-08-23T00:05:21.873Z,52.81
2022-08-23T00:06:25.609Z,52.30
2022-08-23T00:07:36.333Z,52.16
2022-08-23T00:08:39.428Z,52.27
2022-08-23T00:09:46.114Z,52.04
2022-08-23T00:10:56.403Z,52.10
2022-08-23T00:12:20.023Z,51.86
2022-08-23T00:13:24.340Z,51.75
2022-08-23T00:14:33.753Z,51.74
2022-08-23T00:15:39.185Z,51.62
2022-08-23T00:16:44.010Z,51.71
2022-08-23T00:17:48.194Z,51.73
2022-08-23T00:18:52.436Z,51.65
2022-08-23T00:19:56.200Z,51.55
2022-08-23T00:20:59.852Z,51.46
2022-08-23T00:22:03.818Z,51.42
2022-08-23T00:23:08.592Z,51.55
2022-08-23T00:24:14.899Z,51.17
2022-08-23T00:25:19.262Z,51.09
2022-08-23T00:26:27.457Z,51.09
2022-08-23T00:28:45.364Z,51.12
2022-08-23T00:29:52.111Z,51.29
2022-08-23T00:30:58.467Z,51.13
2022-08-23T00:32:12.391Z,51.36
2022-08-23T00:33:16.380Z,51.19
2022-08-23T00:34:21.592Z,51.56
2022-08-23T00:35:26.814Z,50.98
2022-08-23T00:36:31.027Z,50.99
2022-08-23T00:37:34.790Z,51.30
2022-08-23T00:38:37.641Z,51.17
2022-08-23T00:39:45.580Z,51.40
2022-08-23T00:40:53.277Z,51.16
2022-08-23T00:43:34.020Z,50.70
2022-08-23T00:44:57.999Z,50.87
2022-08-23T00:46:24.235Z,50.61
2022-08-23T00:47:40.628Z,50.68
2022-08-23T00:48:44.825Z,50.66
2022-08-23T00:49:55.229Z,50.63
2022-08-23T00:52:43.215Z,50.31
2022-08-23T00:53:53.586Z,50.67
2022-08-23T00:55:00.735Z,50.62
2022-08-23T00:56:07.600Z,50.73
2022-08-23T00:57:14.854Z,50.73
2022-08-23T00:58:21.525Z,50.90
2022-08-23T00:59:25.827Z,50.68
2022-08-23T01:00:35.812Z,50.45
2022-08-23T01:01:39.681Z,50.44
2022-08-23T01:02:44.522Z,50.42
2022-08-23T01:04:03.044Z,50.22
2022-08-23T01:05:01.687Z,50.44
2022-08-23T01:06:18.295Z,50.42
2022-08-23T01:07:34.855Z,50.22
2022-08-23T01:08:41.061Z,50.78
2022-08-23T01:09:50.714Z,50.50
2022-08-23T01:10:58.360Z,50.51
2022-08-23T01:12:08.492Z,50.73
2022-08-23T01:14:53.684Z,50.70
2022-08-23T01:17:27.743Z,50.88
2022-08-23T01:18:35.920Z,51.25
2022-08-23T01:19:52.578Z,51.05
2022-08-23T01:21:10.545Z,51.24
2022-08-23T01:22:30.715Z,50.74
2022-08-23T01:23:59.219Z,50.77
2022-08-23T01:25:08.309Z,50.89
2022-08-23T01:26:21.928Z,50.83
2022-08-23T01:27:23.068Z,51.06
2022-08-23T01:28:27.728Z,50.75
2022-08-23T01:29:31.790Z,50.88
2022-08-23T01:30:38.052Z,51.01
2022-08-23T01:31:44.627Z,51.26
2022-08-23T01:32:58.888Z,51.35
2022-08-23T01:34:06.981Z,51.74
2022-08-23T01:35:11.767Z,51.34
2022-08-23T01:36:17.563Z,51.55
2022-08-23T01:37:22.574Z,51.46
2022-08-23T01:38:27.813Z,51.48
2022-08-23T01:39:33.827Z,51.22
2022-08-23T01:40:40.462Z,51.14
2022-08-23T01:41:47.518Z,51.21
2022-08-23T01:44:04.769Z,51.35
2022-08-23T01:45:14.922Z,51.04
2022-08-23T01:46:21.630Z,50.83
2022-08-23T01:47:25.799Z,50.66
2022-08-23T01:48:30.869Z,50.72
2022-08-23T01:49:36.817Z,50.76
2022-08-23T01:50:41.115Z,50.88
2022-08-23T01:51:46.465Z,50.83
2022-08-23T01:52:49.211Z,50.48
2022-08-23T01:53:58.662Z,50.45
2022-08-23T01:55:07.514Z,50.48
2022-08-23T01:56:14.659Z,50.70
2022-08-23T01:57:19.949Z,50.60
2022-08-23T01:58:23.278Z,50.30
2022-08-23T01:59:28.052Z,50.37
2022-08-23T02:00:37.949Z,50.19
2022-08-23T02:01:45.815Z,50.04
2022-08-23T02:02:56.215Z,49.97
2022-08-23T02:04:05.195Z,49.98
2022-08-23T02:05:06.364Z,49.89
2022-08-23T02:06:14.633Z,49.87
2022-08-23T02:07:20.457Z,50.03
2022-08-23T02:08:42.712Z,50.12
2022-08-23T02:09:48.530Z,50.31
2022-08-23T02:10:54.183Z,49.93
2022-08-23T02:11:58.267Z,50.29
2022-08-23T02:13:02.976Z,50.22
2022-08-23T02:14:09.495Z,50.10
2022-08-23T02:15:18.568Z,50.09
2022-08-23T02:16:37.228Z,49.96
2022-08-23T02:17:41.223Z,50.03
2022-08-23T02:18:45.042Z,49.87
2022-08-23T02:19:49.019Z,50.01
2022-08-23T02:20:53.472Z,49.78
2022-08-23T02:21:59.622Z,49.65
2022-08-23T02:23:04.723Z,49.87
2022-08-23T02:25:31.905Z,50.29
2022-08-23T02:26:42.593Z,50.19
2022-08-23T02:27:48.172Z,49.92
2022-08-23T02:28:56.384Z,50.13
2022-08-23T02:30:02.200Z,50.48
2022-08-23T02:31:05.829Z,50.32
2022-08-23T02:32:09.631Z,50.24
2022-08-23T02:33:13.881Z,50.14
2022-08-23T02:34:19.377Z,50.11
2022-08-23T02:35:24.867Z,49.89
2022-08-23T02:36:29.478Z,49.99
2022-08-23T02:37:35.492Z,50.03
2022-08-23T02:38:40.819Z,50.14
2022-08-23T02:39:45.910Z,50.29
2022-08-23T02:40:52.934Z,50.06
2022-08-23T02:41:56.891Z,50.26
2022-08-23T02:43:03.845Z,50.05
2022-08-23T02:44:08.053Z,50.18
2022-08-23T02:45:16.480Z,50.15
2022-08-23T02:46:22.592Z,50.27
2022-08-23T02:47:30.691Z,50.29
2022-08-23T02:48:53.579Z,50.37
2022-08-23T02:50:01.209Z,50.24
2022-08-23T02:51:09.152Z,50.21
2022-08-23T02:52:14.598Z,50.22
2022-08-23T02:53:20.869Z,50.35
2022-08-23T02:54:24.818Z,50.46
2022-08-23T02:55:28.595Z,50.58
2022-08-23T02:56:37.352Z,50.33
2022-08-23T02:58:54.549Z,50.22
2022-08-23T02:59:59.993Z,50.44
2022-08-23T03:01:05.320Z,50.85
2022-08-23T03:02:09.124Z,50.65
2022-08-23T03:03:14.976Z,50.91
2022-08-23T03:04:17.604Z,50.97
2022-08-23T03:05:22.894Z,50.91
2022-08-23T03:06:28.120Z,50.73
2022-08-23T03:07:32.070Z,50.77
2022-08-23T03:08:39.520Z,50.54
2022-08-23T03:09:46.120Z,51.11
2022-08-23T03:10:53.305Z,50.79
2022-08-23T03:11:57.203Z,50.83
2022-08-23T03:13:03.147Z,50.75
2022-08-23T03:14:06.728Z,50.77
2022-08-23T03:15:13.081Z,50.52
2022-08-23T03:16:18.787Z,50.34
2022-08-23T03:17:24.896Z,50.24
2022-08-23T03:18:45.656Z,50.02
2022-08-23T03:19:50.921Z,50.14
2022-08-23T03:22:10.559Z,50.25
2022-08-23T03:23:14.319Z,50.02
2022-08-23T03:24:17.592Z,49.82
2022-08-23T03:25:21.192Z,49.61
2022-08-23T03:27:44.895Z,49.83
2022-08-23T03:28:46.714Z,49.85
2022-08-23T03:29:50.039Z,49.78
2022-08-23T03:30:55.785Z,49.58
2022-08-23T03:32:00.408Z,49.58
2022-08-23T03:33:07.576Z,49.45
2022-08-23T03:34:11.848Z,49.72
2022-08-23T03:35:15.470Z,49.38
2022-08-23T03:36:28.329Z,49.46
2022-08-23T03:37:30.240Z,49.10
2022-08-23T03:38:35.064Z,49.07
2022-08-23T03:39:40.116Z,49.36
2022-08-23T03:40:44.324Z,49.13
2022-08-23T03:41:48.332Z,48.93
2022-08-23T03:42:55.593Z,49.17
2022-08-23T03:44:00.460Z,49.37
2022-08-23T03:45:06.275Z,48.69
2022-08-23T03:46:18.434Z,48.55
2022-08-23T03:47:26.221Z,48.30
2022-08-23T03:48:32.196Z,48.18
2022-08-23T03:49:37.304Z,48.70
2022-08-23T03:50:43.108Z,48.10
2022-08-23T03:51:47.449Z,48.00
2022-08-23T03:52:52.206Z,48.00
2022-08-23T03:53:56.825Z,47.76
2022-08-23T03:55:00.370Z,47.92
2022-08-23T03:56:05.507Z,47.75
2022-08-23T03:57:10.153Z,47.43
2022-08-23T03:58:18.368Z,47.41
2022-08-23T03:59:23.118Z,47.39
2022-08-23T04:00:27.710Z,47.82
2022-08-23T04:01:32.279Z,47.36
2022-08-23T04:02:36.304Z,47.62
2022-08-23T04:03:43.183Z,47.54
2022-08-23T04:04:48.118Z,47.32
2022-08-23T04:06:03.847Z,47.27
2022-08-23T04:07:08.445Z,47.18
2022-08-23T04:08:14.827Z,47.06
2022-08-23T04:09:23.083Z,46.74
2022-08-23T04:10:31.966Z,46.62
2022-08-23T04:11:36.771Z,46.79
2022-08-23T04:12:48.016Z,46.35
2022-08-23T04:13:52.769Z,46.49
2022-08-23T04:14:56.163Z,46.33
2022-08-23T04:16:01.685Z,46.23
2022-08-23T04:17:06.837Z,46.11
2022-08-23T04:18:12.599Z,45.79
2022-08-23T04:19:18.546Z,45.30
2022-08-23T04:20:24.798Z,45.31
2022-08-23T04:21:31.609Z,45.26
2022-08-23T04:22:35.539Z,44.99
2022-08-23T04:23:43.389Z,44.65
2022-08-23T04:24:49.201Z,44.60
2022-08-23T04:25:58.416Z,44.55
2022-08-23T04:27:03.089Z,44.49
2022-08-23T04:28:08.645Z,44.15
2022-08-23T04:29:28.519Z,43.88
2022-08-23T04:30:23.562Z,44.29
2022-08-23T04:31:28.948Z,43.50
2022-08-23T04:58:13.905Z,42.27
2022-08-23T04:59:20.173Z,42.59
2022-08-23T05:00:27.966Z,42.23
2022-08-23T05:01:31.429Z,41.73
2022-08-23T05:28:31.478Z,40.31
2022-08-23T05:29:36.662Z,40.39
2022-08-23T05:30:40.628Z,40.33
2022-08-23T05:31:47.180Z,40.51
2022-08-23T05:32:54.692Z,40.70
2022-08-23T05:34:00.828Z,41.06
2022-08-23T05:35:19.983Z,40.30
2022-08-23T05:36:23.844Z,40.13
2022-08-23T05:37:28.499Z,39.51
2022-08-23T05:38:35.545Z,38.93
2022-08-23T05:39:40.960Z,38.70
2022-08-23T05:40:59.899Z,38.77
2022-08-23T05:42:05.708Z,38.28
2022-08-23T05:43:09.823Z,38.26
2022-08-23T05:44:13.974Z,38.69
2022-08-23T05:45:21.927Z,38.35
2022-08-23T05:46:26.586Z,38.72
2022-08-23T05:47:49.841Z,38.56
2022-08-23T05:48:55.683Z,38.18
2022-08-23T05:50:00.679Z,37.83
2022-08-23T05:51:17.829Z,37.97
2022-08-23T05:52:21.852Z,37.77
2022-08-23T05:53:32.809Z,37.60
2022-08-23T05:54:36.916Z,38.01
2022-08-23T05:56:02.700Z,37.18
2022-08-23T05:57:06.516Z,37.83
2022-08-23T05:58:09.188Z,38.06
2022-08-23T05:59:15.308Z,37.91
2022-08-23T06:00:19.465Z,38.45
2022-08-23T06:01:22.967Z,37.28
2022-08-23T06:02:29.782Z,37.58
2022-08-23T06:03:36.735Z,36.53
2022-08-23T06:04:43.179Z,36.75
2022-08-23T06:05:46.839Z,37.06
2022-08-23T06:06:56.125Z,36.90
2022-08-23T06:08:02.463Z,36.06
2022-08-23T06:09:08.368Z,36.34
2022-08-23T06:10:16.307Z,36.16
2022-08-23T06:11:24.357Z,35.56
2022-08-23T06:12:32.369Z,35.40
2022-08-23T06:13:44.779Z,35.68
2022-08-23T06:16:03.136Z,35.25
2022-08-23T06:17:07.251Z,35.00
2022-08-23T06:18:14.989Z,35.17
2022-08-23T06:19:19.620Z,35.33
2022-08-23T06:20:31.453Z,34.76
2022-08-23T06:21:41.989Z,34.85
2022-08-23T06:23:57.733Z,35.09
2022-08-23T06:25:02.792Z,35.72
2022-08-23T06:26:20.401Z,35.42
2022-08-23T06:27:26.984Z,34.93
2022-08-23T06:28:36.057Z,35.12
2022-08-23T06:29:40.965Z,34.53
2022-08-23T06:32:15.868Z,34.75
2022-08-23T06:33:23.116Z,33.71
2022-08-23T06:34:37.325Z,34.27
2022-08-23T06:36:18.280Z,34.53
2022-08-23T06:37:33.684Z,34.12
2022-08-23T06:38:49.941Z,33.73
2022-08-23T06:40:01.265Z,33.86
2022-08-23T06:42:38.269Z,32.84
2022-08-23T06:43:37.266Z,33.13
2022-08-23T06:44:43.357Z,33.15
2022-08-23T06:45:54.922Z,31.63
2022-08-23T06:46:58.980Z,31.83
2022-08-23T06:48:05.384Z,31.69
2022-08-23T06:49:08.547Z,31.42
2022-08-23T06:50:24.214Z,30.92
2022-08-23T06:51:44.634Z,29.61
2022-08-23T06:53:01.198Z,29.50
2022-08-23T06:54:17.535Z,29.23
2022-08-23T06:55:33.136Z,27.92
2022-08-23T06:56:43.209Z,27.18
2022-08-23T06:57:49.895Z,26.36
2022-08-23T07:00:22.339Z,25.87
2022-08-23T07:01:45.747Z,26.44
2022-08-23T07:02:52.899Z,26.17
2022-08-23T07:04:21.608Z,25.60
2022-08-23T07:05:38.844Z,26.30
2022-08-23T07:06:49.197Z,25.50
2022-08-23T07:07:56.868Z,24.70
2022-08-23T07:09:02.026Z,24.82
2022-08-23T07:10:09.256Z,24.99
2022-08-23T07:11:12.898Z,24.75
2022-08-23T07:12:17.723Z,24.80
2022-08-23T07:13:22.392Z,24.40
2022-08-23T07:14:30.954Z,25.65
2022-08-23T07:15:33.879Z,25.94
2022-08-23T07:16:43.836Z,24.89
2022-08-23T07:17:48.335Z,24.83
2022-08-23T07:18:56.337Z,23.67
2022-08-23T07:20:01.309Z,23.49
2022-08-23T07:21:08.439Z,23.27
2022-08-23T07:23:31.352Z,23.40
2022-08-23T07:24:35.015Z,23.83
2022-08-23T07:25:40.409Z,22.72
2022-08-23T07:26:48.199Z,23.15
2022-08-23T07:27:54.769Z,24.10
2022-08-23T07:29:00.293Z,25.45
2022-08-23T07:30:06.385Z,24.64
2022-08-23T07:31:18.228Z,24.61
2022-08-23T07:32:25.762Z,24.59
2022-08-23T07:33:33.254Z,24.75
2022-08-23T07:34:46.205Z,24.97
2022-08-23T07:35:52.255Z,24.67
2022-08-23T07:36:58.497Z,23.63
2022-08-23T07:38:05.505Z,23.64
2022-08-23T07:39:12.928Z,23.14
2022-08-23T07:40:20.643Z,22.75
2022-08-23T07:41:32.905Z,22.86
2022-08-23T07:42:37.277Z,22.30
2022-08-23T07:43:42.620Z,22.43
2022-08-23T07:44:51.638Z,23.93
2022-08-23T07:45:56.726Z,23.40
2022-08-23T07:47:01.792Z,23.17
2022-08-23T07:48:10.417Z,22.74
2022-08-23T07:49:16.837Z,23.98
2022-08-23T07:50:25.150Z,22.74
2022-08-23T07:51:35.830Z,22.33
2022-08-23T07:52:39.468Z,22.25
2022-08-23T07:53:46.022Z,22.20
2022-08-23T07:54:50.708Z,22.81
2022-08-23T07:55:59.598Z,23.94
2022-08-23T07:57:12.918Z,26.26
2022-08-23T07:58:26.348Z,25.61
2022-08-23T07:59:35.112Z,24.89
2022-08-23T08:00:45.759Z,25.20
2022-08-23T08:02:13.021Z,25.46
2022-08-23T08:03:19.687Z,24.65
2022-08-23T08:04:34.530Z,24.72
2022-08-23T08:05:41.538Z,24.57
2022-08-23T08:06:59.802Z,25.05
2022-08-23T08:07:56.876Z,24.92
2022-08-23T08:09:06.157Z,25.82
2022-08-23T08:10:12.376Z,25.41
2022-08-23T08:11:20.050Z,24.60
2022-08-23T08:12:23.192Z,26.28
2022-08-23T08:13:31.870Z,26.96
2022-08-23T08:14:38.333Z,28.22
2022-08-23T08:15:45.210Z,28.62
2022-08-23T08:16:53.001Z,27.31
2022-08-23T08:17:57.836Z,26.01
2022-08-23T08:19:08.599Z,24.79
2022-08-23T08:20:33.343Z,24.21
2022-08-23T08:21:42.647Z,23.80
2022-08-23T08:22:51.263Z,23.24
2022-08-23T08:24:17.410Z,22.00
2022-08-23T08:25:24.574Z,22.47
2022-08-23T08:26:31.501Z,24.29
2022-08-23T08:27:36.187Z,26.05
2022-08-23T08:28:41.183Z,27.97
2022-08-23T08:29:45.498Z,28.50
2022-08-23T08:30:49.510Z,28.61
2022-08-23T08:31:56.681Z,28.83
2022-08-23T08:33:00.506Z,29.61
2022-08-23T08:34:07.486Z,30.25
2022-08-23T08:35:14.535Z,30.87
2022-08-23T08:36:39.627Z,29.95
2022-08-23T08:37:45.427Z,30.34
2022-08-23T08:38:53.303Z,30.02
2022-08-23T08:40:00.922Z,29.99
2022-08-23T08:41:18.040Z,30.19
2022-08-23T08:42:27.292Z,29.98
2022-08-23T08:43:40.346Z,31.04
2022-08-23T08:46:30.970Z,30.71
2022-08-23T08:47:41.901Z,30.63
2022-08-23T08:48:50.455Z,30.51
2022-08-23T08:50:16.844Z,30.03
2022-08-23T08:52:53.647Z,28.86
2022-08-23T08:54:03.386Z,30.31
2022-08-23T08:55:12.736Z,28.97
2022-08-23T08:56:32.463Z,28.20
2022-08-23T08:57:39.441Z,27.93
2022-08-23T08:58:56.233Z,27.69
2022-08-23T09:00:07.705Z,27.87
2022-08-23T09:01:16.998Z,28.94
2022-08-23T09:02:32.872Z,28.24
2022-08-23T09:03:32.438Z,28.59
2022-08-23T09:04:38.204Z,28.74
2022-08-23T09:05:53.588Z,28.70
2022-08-23T09:07:31.222Z,28.86
2022-08-23T09:09:02.198Z,27.49
2022-08-23T09:10:23.692Z,27.54
2022-08-23T09:11:56.495Z,28.06
2022-08-23T09:13:31.743Z,29.04
2022-08-23T09:14:55.343Z,28.77
2022-08-23T09:16:17.808Z,29.73
2022-08-23T09:17:47.375Z,29.66
2022-08-23T09:18:52.027Z,29.22
2022-08-23T09:19:58.487Z,29.39
2022-08-23T09:21:14.597Z,28.94
2022-08-23T09:22:31.303Z,29.09
2022-08-23T09:23:45.550Z,29.33
2022-08-23T09:24:49.880Z,28.11
2022-08-23T09:26:03.824Z,26.92
2022-08-23T09:27:11.555Z,26.51
2022-08-23T09:28:16.639Z,25.99
2022-08-23T09:29:29.016Z,26.16
2022-08-23T09:30:48.468Z,25.88
2022-08-23T09:32:03.442Z,25.49
2022-08-23T09:33:18.654Z,25.36
2022-08-23T09:34:32.170Z,24.40
2022-08-23T09:36:21.278Z,25.08
2022-08-23T09:38:54.332Z,23.48
2022-08-23T09:40:31.679Z,24.89
2022-08-23T09:41:42.742Z,24.74
2022-08-23T09:42:49.139Z,24.59
2022-08-23T09:43:56.396Z,24.09
2022-08-23T09:45:02.588Z,24.25
2022-08-23T09:46:07.792Z,23.25
2022-08-23T09:47:15.376Z,22.55
2022-08-23T09:48:40.903Z,23.26
2022-08-23T09:49:50.167Z,22.98
2022-08-23T09:50:58.962Z,23.79
2022-08-23T09:52:13.332Z,22.58
2022-08-23T09:53:29.951Z,22.58
2022-08-23T09:54:47.383Z,22.29
2022-08-23T09:57:14.468Z,22.98
2022-08-23T09:58:26.681Z,23.47
2022-08-23T09:59:48.836Z,23.11
2022-08-23T10:01:16.809Z,22.32
2022-08-23T10:02:33.815Z,23.28
2022-08-23T10:03:47.640Z,22.66
2022-08-23T10:04:59.596Z,22.73
2022-08-23T10:06:04.963Z,22.64
2022-08-23T10:07:28.651Z,22.78
2022-08-23T10:08:43.019Z,22.40
2022-08-23T10:09:43.432Z,22.52
2022-08-23T10:10:55.538Z,22.28
2022-08-23T10:12:02.924Z,22.26
2022-08-23T10:13:08.533Z,22.34
2022-08-23T10:14:20.240Z,22.27
2022-08-23T10:16:45.465Z,21.81
2022-08-23T10:18:10.488Z,21.24
2022-08-23T10:19:24.193Z,21.00
2022-08-23T10:20:38.504Z,20.40
2022-08-23T10:22:04.526Z,21.46
2022-08-23T10:23:22.088Z,20.06
2022-08-23T10:24:37.274Z,20.91
2022-08-23T10:25:47.114Z,20.39
2022-08-23T10:27:31.869Z,20.75
2022-08-23T10:29:03.151Z,19.85
2022-08-23T10:30:10.732Z,20.01
2022-08-23T10:31:28.852Z,20.15
2022-08-23T10:32:45.946Z,19.80
2022-08-23T10:33:59.132Z,20.06
2022-08-23T10:35:22.340Z,19.67
2022-08-23T10:36:33.102Z,19.87
2022-08-23T10:38:16.664Z,19.88
2022-08-23T10:39:28.523Z,19.60
2022-08-23T10:40:36.541Z,20.11
2022-08-23T10:42:03.424Z,19.84
2022-08-23T10:43:17.757Z,19.81
2022-08-23T10:44:34.976Z,19.94
2022-08-23T10:45:58.327Z,19.87
2022-08-23T10:47:12.973Z,20.25
2022-08-23T10:48:25.207Z,20.43
2022-08-23T10:49:32.798Z,20.33
2022-08-23T10:50:54.640Z,19.93
2022-08-23T10:51:57.694Z,20.21
2022-08-23T10:53:15.727Z,20.64
2022-08-23T10:54:26.472Z,20.96
2022-08-23T10:55:47.521Z,20.67
2022-08-23T10:56:52.597Z,20.04
2022-08-23T10:57:57.429Z,19.99
2022-08-23T10:59:18.219Z,19.63
2022-08-23T11:00:26.644Z,19.54
2022-08-23T11:01:37.809Z,19.91
2022-08-23T11:02:51.297Z,19.89
2022-08-23T11:04:09.674Z,20.24
2022-08-23T11:05:33.264Z,20.78
2022-08-23T11:06:49.124Z,20.03
2022-08-23T11:08:06.149Z,20.52
2022-08-23T11:09:25.907Z,20.07
2022-08-23T11:10:42.097Z,19.92
2022-08-23T11:12:11.147Z,20.18
2022-08-23T11:13:21.684Z,20.41
2022-08-23T11:14:41.869Z,20.62
2022-08-23T11:16:09.770Z,20.42
2022-08-23T11:17:31.231Z,20.65
2022-08-23T11:18:44.679Z,20.05
2022-08-23T11:19:54.107Z,20.21
2022-08-23T11:21:10.455Z,20.44
2022-08-23T11:22:23.319Z,20.24
2022-08-23T11:23:59.882Z,20.62
2022-08-23T11:26:35.145Z,20.12
2022-08-23T11:27:41.757Z,20.66
2022-08-23T11:28:47.722Z,20.90
2022-08-23T11:29:52.753Z,20.87
2022-08-23T11:31:22.461Z,21.16
2022-08-23T11:32:30.097Z,21.02
2022-08-23T11:33:48.265Z,21.12
2022-08-23T11:34:59.712Z,21.04
2022-08-23T11:37:27.085Z,20.98
2022-08-23T11:38:52.912Z,21.42
2022-08-23T11:40:01.858Z,21.41
2022-08-23T11:41:24.290Z,21.40
2022-08-23T11:42:45.513Z,21.63
2022-08-23T11:43:52.710Z,21.86
2022-08-23T11:44:58.374Z,21.76
2022-08-23T11:46:30.396Z,22.30
2022-08-23T11:47:44.434Z,21.27
2022-08-23T11:49:12.009Z,21.31
2022-08-23T11:52:01.984Z,21.24
2022-08-23T11:53:10.191Z,20.97
2022-08-23T11:54:27.764Z,21.25
2022-08-23T11:55:37.948Z,21.84
2022-08-23T11:56:56.358Z,21.17
2022-08-23T11:58:25.659Z,21.38
2022-08-23T11:59:45.458Z,21.24
2022-08-23T12:01:10.306Z,21.20
2022-08-23T12:02:44.103Z,21.86
2022-08-23T12:04:06.463Z,21.67
2022-08-23T12:05:24.509Z,21.33
2022-08-23T12:06:50.666Z,22.08
2022-08-23T12:08:02.361Z,21.40
2022-08-23T12:09:14.030Z,21.29
2022-08-23T12:10:24.617Z,20.97
2022-08-23T12:11:31.777Z,20.79
2022-08-23T12:12:39.364Z,20.77
2022-08-23T12:13:58.842Z,20.48
2022-08-23T12:16:24.547Z,21.11
2022-08-23T12:17:29.882Z,21.23
2022-08-23T12:18:38.314Z,21.34
2022-08-23T12:19:50.716Z,20.67
2022-08-23T12:21:02.759Z,20.50
2022-08-23T12:22:11.519Z,20.40
2022-08-23T12:23:18.509Z,20.79
2022-08-23T12:24:47.019Z,20.97
2022-08-23T12:26:01.858Z,21.48
2022-08-23T12:27:11.331Z,21.45
2022-08-23T12:28:24.864Z,21.08
2022-08-23T12:29:44.527Z,21.12
2022-08-23T12:30:55.362Z,21.26
2022-08-23T12:32:15.680Z,21.04
2022-08-23T12:33:29.007Z,20.78
2022-08-23T12:34:42.048Z,20.61
2022-08-23T12:35:55.596Z,21.00
2022-08-23T12:37:10.693Z,21.34
2022-08-23T12:38:33.070Z,21.25
2022-08-23T12:39:41.680Z,21.83
2022-08-23T12:40:48.512Z,21.94
2022-08-23T12:42:00.489Z,22.28
2022-08-23T12:43:17.437Z,22.32
2022-08-23T12:44:21.497Z,22.70
2022-08-23T12:45:26.563Z,23.11
2022-08-23T12:46:40.386Z,23.24
2022-08-23T12:47:47.797Z,23.02
2022-08-23T12:48:51.543Z,23.19
2022-08-23T12:50:12.573Z,23.15
2022-08-23T12:51:17.273Z,22.87
2022-08-23T12:52:25.257Z,23.21
2022-08-23T12:53:32.742Z,23.21
2022-08-23T12:54:45.079Z,22.58
2022-08-23T12:55:52.839Z,22.92
2022-08-23T12:56:56.349Z,22.61
2022-08-23T12:58:05.358Z,22.54
2022-08-23T12:59:13.637Z,23.08
2022-08-23T13:00:24.001Z,22.95
2022-08-23T13:01:31.011Z,22.88
2022-08-23T13:02:37.258Z,22.82
2022-08-23T13:03:46.424Z,23.35
2022-08-23T13:04:50.593Z,23.35
2022-08-23T13:07:20.404Z,23.68
2022-08-23T13:08:34.698Z,23.36
2022-08-23T13:09:41.645Z,23.38
2022-08-23T13:10:53.623Z,23.10
2022-08-23T13:12:00.925Z,23.33
2022-08-23T13:13:05.666Z,23.20
2022-08-23T13:14:33.357Z,22.94
2022-08-23T13:15:50.192Z,22.94
2022-08-23T13:16:56.877Z,22.38
2022-08-23T13:18:01.803Z,22.65
2022-08-23T13:19:28.541Z,22.80
2022-08-23T13:20:33.194Z,23.04
2022-08-23T13:21:39.874Z,22.42
2022-08-23T13:23:07.754Z,22.56
2022-08-23T13:24:37.784Z,22.22
2022-08-23T13:25:44.247Z,23.52
2022-08-23T13:26:52.255Z,23.49
2022-08-23T13:28:03.867Z,23.81
2022-08-23T13:29:10.528Z,23.89
2022-08-23T13:30:19.161Z,23.87
2022-08-23T13:31:22.845Z,23.28
2022-08-23T13:32:39.686Z,23.81
2022-08-23T13:33:52.255Z,23.07
2022-08-23T13:34:58.225Z,23.27
2022-08-23T13:36:16.552Z,23.51
2022-08-23T13:37:29.047Z,23.27
2022-08-23T13:38:34.092Z,23.05
2022-08-23T13:39:44.260Z,23.13
2022-08-23T13:41:05.319Z,23.04
2022-08-23T13:42:12.854Z,22.91
2022-08-23T13:43:25.131Z,23.48
2022-08-23T13:44:29.888Z,23.43
2022-08-23T13:45:37.620Z,23.37
2022-08-23T13:46:47.091Z,23.18
2022-08-23T13:47:54.280Z,23.65
2022-08-23T13:49:08.190Z,23.75
2022-08-23T13:50:18.538Z,23.48
2022-08-23T13:51:37.074Z,23.00
2022-08-23T13:53:03.176Z,23.39
2022-08-23T13:53:47.314Z,22.86
2022-08-23T13:54:53.971Z,22.82
2022-08-23T13:56:02.130Z,23.43
2022-08-23T13:57:12.885Z,23.79
2022-08-23T13:58:33.208Z,23.49
2022-08-23T13:59:43.613Z,23.31
2022-08-23T14:00:55.538Z,23.97
2022-08-23T14:01:54.337Z,23.67
2022-08-23T14:03:01.185Z,23.92
2022-08-23T14:04:07.796Z,23.69
2022-08-23T14:05:11.817Z,23.53
2022-08-23T14:06:16.229Z,23.53
2022-08-23T14:07:21.136Z,23.78
2022-08-23T14:08:23.910Z,23.94
2022-08-23T14:09:27.636Z,24.10
2022-08-23T14:10:32.595Z,23.95
2022-08-23T14:11:37.562Z,24.03
2022-08-23T14:12:46.751Z,24.04
2022-08-23T14:13:51.501Z,23.96
2022-08-23T14:14:57.704Z,23.81
2022-08-23T14:17:13.117Z,24.29
2022-08-23T14:18:17.563Z,24.33
2022-08-23T14:20:33.980Z,23.44
2022-08-23T14:21:38.561Z,24.43
2022-08-23T14:22:42.586Z,24.56
2022-08-23T14:23:46.612Z,24.34
2022-08-23T14:24:50.332Z,24.34
2022-08-23T14:26:05.066Z,24.29
2022-08-23T14:27:09.800Z,24.84
2022-08-23T14:28:16.781Z,24.44
2022-08-23T14:29:22.885Z,24.76
2022-08-23T14:30:31.943Z,24.75
2022-08-23T14:31:42.961Z,24.91
2022-08-23T14:32:46.722Z,24.56
2022-08-23T14:33:54.724Z,25.00
2022-08-23T14:35:02.689Z,24.63
2022-08-23T14:38:00.582Z,24.77
2022-08-23T14:38:25.171Z,24.72
2022-08-23T14:39:28.561Z,25.27
2022-08-23T14:40:33.222Z,24.79
2022-08-23T14:41:38.312Z,24.83
2022-08-23T14:42:46.639Z,25.24
2022-08-23T14:43:51.551Z,25.03
2022-08-23T14:44:55.387Z,24.95
2022-08-23T14:46:00.232Z,24.91
2022-08-23T14:47:07.223Z,24.85
2022-08-23T14:48:14.074Z,25.31
2022-08-23T14:49:22.226Z,25.20
2022-08-23T14:50:27.837Z,25.73
2022-08-23T14:51:34.840Z,26.03
2022-08-23T14:52:43.042Z,26.26
2022-08-23T14:53:46.439Z,26.12
2022-08-23T14:54:49.703Z,25.85
2022-08-23T14:56:18.765Z,25.60
2022-08-23T14:57:01.330Z,25.48
2022-08-23T14:58:05.125Z,25.60
2022-08-23T14:59:11.558Z,25.80
2022-08-23T15:00:20.819Z,26.20
2022-08-23T15:01:27.997Z,25.68
2022-08-23T15:02:32.633Z,26.12
2022-08-23T15:03:36.747Z,26.43
2022-08-23T15:04:42.038Z,26.38
2022-08-23T15:05:45.645Z,26.59
2022-08-23T15:07:15.973Z,26.80
2022-08-23T15:07:55.013Z,26.63
2022-08-23T15:08:58.417Z,26.96
2022-08-23T15:10:04.988Z,27.05
2022-08-23T15:13:32.509Z,27.57
2022-08-23T15:14:35.913Z,27.03
2022-08-23T15:15:39.976Z,27.00
2022-08-23T15:16:47.565Z,27.26
2022-08-23T15:17:58.948Z,27.54
2022-08-23T15:19:02.693Z,27.36
2022-08-23T15:20:07.883Z,27.51
2022-08-23T15:21:11.755Z,27.32
2022-08-23T15:22:21.415Z,26.98
2022-08-23T15:23:22.963Z,27.33
2022-08-23T15:24:26.865Z,27.07
2022-08-23T15:25:32.300Z,27.38
2022-08-23T15:26:36.427Z,27.88
2022-08-23T15:27:40.346Z,27.89
2022-08-23T15:28:45.222Z,27.66
2022-08-23T15:29:49.755Z,27.93
2022-08-23T15:30:55.268Z,28.25
2022-08-23T15:32:00.429Z,27.98
2022-08-23T15:33:05.371Z,28.03
2022-08-23T15:34:12.678Z,28.07
2022-08-23T15:35:20.845Z,28.67
2022-08-23T15:36:25.406Z,28.32
2022-08-23T15:37:28.465Z,28.23
2022-08-23T15:38:31.754Z,28.59
2022-08-23T15:39:35.463Z,28.52
2022-08-23T15:40:39.849Z,28.49
2022-08-23T15:41:44.773Z,28.70
2022-08-23T15:42:48.485Z,28.59
2022-08-23T15:43:52.429Z,28.48
2022-08-23T15:44:56.127Z,28.62
2022-08-23T15:46:00.046Z,29.35
2022-08-23T15:47:06.585Z,29.30
2022-08-23T15:48:19.848Z,28.76
2022-08-23T15:49:25.499Z,28.77
2022-08-23T15:50:35.093Z,29.16
2022-08-23T15:51:39.085Z,29.29
2022-08-23T15:52:42.702Z,29.59
2022-08-23T15:53:47.769Z,29.70
2022-08-23T15:54:51.693Z,29.68
2022-08-23T15:56:05.746Z,30.12
2022-08-23T15:57:08.682Z,30.22
2022-08-23T15:58:16.063Z,30.42
2022-08-23T15:59:22.149Z,30.33
2022-08-23T16:00:31.939Z,30.31
2022-08-23T16:01:37.800Z,30.39
2022-08-23T16:03:06.629Z,29.85
2022-08-23T16:03:47.862Z,30.56
2022-08-23T16:04:52.849Z,30.83
2022-08-23T16:06:00.834Z,30.63
2022-08-23T16:07:06.141Z,30.77
2022-08-23T16:08:13.614Z,31.37
2022-08-23T16:09:21.921Z,31.45
2022-08-23T16:10:26.108Z,31.47
2022-08-23T16:11:33.891Z,31.40
2022-08-23T16:12:37.794Z,31.48
2022-08-23T16:13:47.105Z,31.86
2022-08-23T16:14:52.953Z,31.89
2022-08-23T16:15:57.456Z,32.22
2022-08-23T16:17:01.927Z,32.34
2022-08-23T16:18:08.344Z,32.93
2022-08-23T16:19:13.545Z,33.55
2022-08-23T16:20:17.351Z,33.35
2022-08-23T16:21:23.544Z,33.76
2022-08-23T16:22:27.308Z,34.04
2022-08-23T16:23:33.108Z,34.60
2022-08-23T16:24:38.001Z,34.27
2022-08-23T16:25:42.414Z,34.19
2022-08-23T16:26:47.636Z,34.19
2022-08-23T16:27:51.272Z,34.24